createdAt,value
2018-03-14T00:00:17.350Z,65.96
2018-03-14T00:00:49.014Z,65.88
2018-03-14T00:01:20.661Z,65.85
2018-03-14T00:01:52.322Z,65.98
2018-03-14T00:02:24.006Z,65.86
2018-03-14T00:02:55.644Z,66.00
2018-03-14T00:03:27.282Z,66.02
2018-03-14T00:03:58.962Z,65.86
2018-03-14T00:04:30.615Z,66.08
2018-03-14T00:05:02.284Z,66.18
2018-03-14T00:05:33.921Z,66.12
2018-03-14T00:06:05.558Z,66.19
2018-03-14T00:06:37.214Z,66.11
2018-03-14T00:07:08.850Z,65.97
2018-03-14T00:07:40.491Z,66.12
2018-03-14T00:08:12.126Z,65.94
2018-03-14T00:08:43.773Z,65.89
2018-03-14T00:09:15.426Z,65.94
2018-03-14T00:09:47.108Z,66.02
2018-03-14T00:10:18.761Z,65.91
2018-03-14T00:10:50.402Z,65.88
2018-03-14T00:11:22.049Z,65.81
2018-03-14T00:11:53.682Z,65.82
2018-03-14T00:12:25.350Z,65.80
2018-03-14T00:12:56.989Z,65.82
2018-03-14T00:13:28.645Z,65.78
2018-03-14T00:14:00.354Z,65.77
2018-03-14T00:14:32.016Z,65.78
2018-03-14T00:15:03.674Z,65.86
2018-03-14T00:15:35.309Z,65.70
2018-03-14T00:16:06.958Z,65.94
2018-03-14T00:16:38.594Z,65.79
2018-03-14T00:17:10.238Z,65.87
2018-03-14T00:17:41.879Z,65.95
2018-03-14T00:18:13.531Z,65.82
2018-03-14T00:18:45.187Z,65.81
2018-03-14T00:19:16.848Z,65.75
2018-03-14T00:19:48.502Z,65.76
2018-03-14T00:20:20.156Z,65.83
2018-03-14T00:20:51.810Z,65.96
2018-03-14T00:21:23.467Z,65.77
2018-03-14T00:21:55.114Z,65.86
2018-03-14T00:22:26.750Z,66.04
2018-03-14T00:22:58.442Z,66.01
2018-03-14T00:23:30.082Z,66.07
2018-03-14T00:24:01.723Z,66.29
2018-03-14T00:24:33.418Z,66.08
2018-03-14T00:25:05.062Z,66.13
2018-03-14T00:25:36.718Z,66.18
2018-03-14T00:26:08.378Z,66.08
2018-03-14T00:26:40.022Z,66.04
2018-03-14T00:27:11.681Z,66.46
2018-03-14T00:27:43.342Z,66.36
2018-03-14T00:28:14.983Z,66.29
2018-03-14T00:28:46.637Z,66.36
2018-03-14T00:29:18.339Z,66.23
2018-03-14T00:29:50.003Z,66.97
2018-03-14T00:30:21.666Z,67.13
2018-03-14T00:30:53.330Z,67.55
2018-03-14T00:31:24.971Z,67.25
2018-03-14T00:31:56.611Z,67.17
2018-03-14T00:32:28.283Z,67.20
2018-03-14T00:32:59.938Z,67.38
2018-03-14T00:33:31.586Z,67.32
2018-03-14T00:34:03.246Z,67.37
2018-03-14T00:34:34.898Z,67.49
2018-03-14T00:35:06.593Z,68.37
2018-03-14T00:35:38.242Z,68.01
2018-03-14T00:36:09.886Z,67.56
2018-03-14T00:36:41.534Z,67.67
2018-03-14T00:37:13.178Z,67.49
2018-03-14T00:37:44.839Z,67.33
2018-03-14T00:38:16.486Z,67.08
2018-03-14T00:38:48.138Z,66.76
2018-03-14T00:39:19.778Z,66.66
2018-03-14T00:39:51.442Z,66.76
2018-03-14T00:40:23.122Z,66.58
2018-03-14T00:40:54.765Z,66.55
2018-03-14T00:41:26.412Z,66.44
2018-03-14T00:41:58.071Z,66.63
2018-03-14T00:42:29.769Z,66.54
2018-03-14T00:43:01.421Z,66.46
2018-03-14T00:43:33.062Z,66.50
2018-03-14T00:44:04.702Z,66.51
2018-03-14T00:44:36.350Z,66.66
2018-03-14T00:45:07.982Z,66.72
2018-03-14T00:45:39.727Z,66.46
2018-03-14T00:46:11.399Z,66.32
2018-03-14T00:46:43.046Z,66.43
2018-03-14T00:47:14.689Z,66.41
2018-03-14T00:47:46.387Z,66.36
2018-03-14T00:48:18.035Z,66.26
2018-03-14T00:48:49.669Z,66.39
2018-03-14T00:49:21.306Z,66.31
2018-03-14T00:49:52.941Z,66.37
2018-03-14T00:50:24.597Z,66.09
2018-03-14T00:50:56.230Z,66.31
2018-03-14T00:51:27.874Z,66.48
2018-03-14T00:51:59.534Z,66.30
2018-03-14T00:52:31.190Z,66.25
2018-03-14T00:53:02.866Z,66.39
2018-03-14T00:53:34.521Z,66.10
2018-03-14T00:54:06.162Z,66.41
2018-03-14T00:54:37.810Z,66.27
2018-03-14T00:55:09.445Z,66.41
2018-03-14T00:55:41.082Z,66.17
2018-03-14T00:56:12.717Z,66.16
2018-03-14T00:56:44.406Z,65.79
2018-03-14T00:57:16.055Z,65.69
2018-03-14T00:57:47.705Z,65.56
2018-03-14T00:58:19.354Z,65.73
2018-03-14T00:58:51.018Z,65.50
2018-03-14T00:59:22.678Z,65.59
2018-03-14T00:59:54.314Z,65.50
2018-03-14T01:00:25.970Z,65.80
2018-03-14T01:00:57.629Z,65.68
2018-03-14T01:01:29.270Z,65.63
2018-03-14T01:02:00.954Z,65.58
2018-03-14T01:02:32.602Z,65.81
2018-03-14T01:03:04.250Z,65.69
2018-03-14T01:03:35.950Z,65.60
2018-03-14T01:04:07.633Z,65.85
2018-03-14T01:04:39.250Z,65.38
2018-03-14T01:05:10.934Z,65.31
2018-03-14T01:05:42.574Z,65.48
2018-03-14T01:06:14.239Z,65.43
2018-03-14T01:06:45.877Z,65.33
2018-03-14T01:07:17.522Z,65.31
2018-03-14T01:07:49.166Z,65.23
2018-03-14T01:08:20.805Z,65.29
2018-03-14T01:08:52.449Z,65.14
2018-03-14T01:09:24.110Z,65.13
2018-03-14T01:09:55.746Z,65.11
2018-03-14T01:10:27.413Z,65.04
2018-03-14T01:10:59.042Z,65.14
2018-03-14T01:11:30.686Z,65.20
2018-03-14T01:12:02.341Z,65.13
2018-03-14T01:12:33.985Z,64.94
2018-03-14T01:13:05.647Z,64.99
2018-03-14T01:13:37.309Z,65.01
2018-03-14T01:14:08.966Z,64.94
2018-03-14T01:14:40.615Z,64.87
2018-03-14T01:15:12.263Z,64.94
2018-03-14T01:15:43.954Z,65.04
2018-03-14T01:16:15.597Z,64.98
2018-03-14T01:16:47.246Z,64.99
2018-03-14T01:17:18.887Z,64.92
2018-03-14T01:17:50.533Z,65.22
2018-03-14T01:18:22.177Z,65.02
2018-03-14T01:18:53.835Z,65.08
2018-03-14T01:19:25.558Z,65.02
2018-03-14T01:19:57.202Z,65.09
2018-03-14T01:20:28.846Z,65.19
2018-03-14T01:21:00.506Z,65.00
2018-03-14T01:21:32.146Z,65.20
2018-03-14T01:22:03.805Z,65.26
2018-03-14T01:22:35.448Z,65.20
2018-03-14T01:23:08.133Z,65.34
2018-03-14T01:23:39.788Z,65.25
2018-03-14T01:24:11.447Z,65.50
2018-03-14T01:24:43.101Z,65.69
2018-03-14T01:25:14.742Z,65.66
2018-03-14T01:25:46.399Z,65.83
2018-03-14T01:26:18.098Z,65.77
2018-03-14T01:26:49.754Z,65.74
2018-03-14T01:27:21.463Z,65.95
2018-03-14T01:27:53.111Z,65.92
2018-03-14T01:28:24.746Z,65.84
2018-03-14T01:28:56.395Z,65.96
2018-03-14T01:29:28.034Z,65.86
2018-03-14T01:29:59.690Z,65.75
2018-03-14T01:30:31.325Z,65.89
2018-03-14T01:31:02.987Z,65.74
2018-03-14T01:31:34.686Z,65.80
2018-03-14T01:32:06.321Z,65.72
2018-03-14T01:32:37.977Z,65.70
2018-03-14T01:33:09.610Z,65.68
2018-03-14T01:33:41.263Z,66.01
2018-03-14T01:34:12.911Z,65.80
2018-03-14T01:34:44.558Z,65.80
2018-03-14T01:35:16.213Z,65.90
2018-03-14T01:35:47.874Z,65.71
2018-03-14T01:36:19.527Z,65.71
2018-03-14T01:36:51.226Z,65.66
2018-03-14T01:37:22.891Z,65.67
2018-03-14T01:37:54.543Z,65.67
2018-03-14T01:38:26.178Z,65.67
2018-03-14T01:38:57.818Z,65.72
2018-03-14T01:39:29.482Z,65.75
2018-03-14T01:40:01.130Z,65.70
2018-03-14T01:40:32.785Z,65.83
2018-03-14T01:41:04.424Z,65.72
2018-03-14T01:41:36.075Z,65.76
2018-03-14T01:42:07.754Z,65.71
2018-03-14T01:42:39.390Z,65.75
2018-03-14T01:43:11.032Z,65.70
2018-03-14T01:43:42.675Z,65.71
2018-03-14T01:44:14.358Z,65.97
2018-03-14T01:44:46.001Z,65.75
2018-03-14T01:45:17.658Z,65.85
2018-03-14T01:45:49.291Z,65.90
2018-03-14T01:46:20.982Z,65.91
2018-03-14T01:46:52.602Z,65.84
2018-03-14T01:47:24.237Z,65.92
2018-03-14T01:47:55.897Z,65.96
2018-03-14T01:48:27.551Z,65.89
2018-03-14T01:48:59.201Z,66.00
2018-03-14T01:49:30.885Z,66.07
2018-03-14T01:50:02.591Z,65.92
2018-03-14T01:50:34.226Z,66.10
2018-03-14T01:51:05.861Z,66.03
2018-03-14T01:51:37.518Z,66.01
2018-03-14T01:52:09.178Z,66.09
2018-03-14T01:52:40.825Z,66.04
2018-03-14T01:53:12.487Z,66.05
2018-03-14T01:53:44.150Z,66.19
2018-03-14T01:54:15.786Z,65.93
2018-03-14T01:54:47.422Z,66.03
2018-03-14T01:55:19.062Z,65.90
2018-03-14T01:55:50.706Z,65.98
2018-03-14T01:56:22.337Z,66.05
2018-03-14T01:56:54.044Z,66.00
2018-03-14T01:57:25.928Z,66.04
2018-03-14T01:57:57.587Z,66.11
2018-03-14T01:58:29.327Z,66.19
2018-03-14T01:59:00.981Z,66.04
2018-03-14T01:59:32.626Z,66.10
2018-03-14T02:00:04.314Z,66.03
2018-03-14T02:00:35.954Z,66.02
2018-03-14T02:01:07.594Z,66.11
2018-03-14T02:01:39.250Z,66.05
2018-03-14T02:02:10.895Z,66.11
2018-03-14T02:02:42.558Z,66.04
2018-03-14T02:03:14.210Z,65.94
2018-03-14T02:03:45.846Z,65.94
2018-03-14T02:04:17.482Z,65.99
2018-03-14T02:04:49.137Z,65.97
2018-03-14T02:05:20.851Z,66.05
2018-03-14T02:05:52.495Z,66.03
2018-03-14T02:06:24.139Z,66.06
2018-03-14T02:06:55.794Z,65.95
2018-03-14T02:07:27.438Z,65.97
2018-03-14T02:07:59.103Z,65.94
2018-03-14T02:08:30.762Z,65.91
2018-03-14T02:09:02.433Z,65.95
2018-03-14T02:09:34.078Z,65.91
2018-03-14T02:10:05.723Z,65.86
2018-03-14T02:10:37.414Z,65.89
2018-03-14T02:11:09.055Z,65.86
2018-03-14T02:11:40.714Z,65.79
2018-03-14T02:12:12.378Z,65.82
2018-03-14T02:12:44.027Z,65.81
2018-03-14T02:13:15.662Z,65.73
2018-03-14T02:13:47.302Z,65.69
2018-03-14T02:14:18.942Z,65.71
2018-03-14T02:14:50.595Z,65.72
2018-03-14T02:15:22.246Z,65.67
2018-03-14T02:15:53.886Z,65.67
2018-03-14T02:16:25.547Z,65.61
2018-03-14T02:16:57.182Z,65.57
2018-03-14T02:17:28.886Z,65.45
2018-03-14T02:18:00.526Z,65.45
2018-03-14T02:18:32.190Z,65.57
2018-03-14T02:19:03.826Z,65.50
2018-03-14T02:19:35.458Z,65.54
2018-03-14T02:20:07.099Z,65.45
2018-03-14T02:20:38.742Z,65.30
2018-03-14T02:21:10.394Z,65.34
2018-03-14T02:21:42.074Z,65.31
2018-03-14T02:22:13.711Z,65.23
2018-03-14T02:22:45.351Z,65.09
2018-03-14T02:23:16.999Z,65.10
2018-03-14T02:23:48.706Z,65.06
2018-03-14T02:24:20.350Z,65.15
2018-03-14T02:24:51.986Z,64.95
2018-03-14T02:25:23.621Z,65.05
2018-03-14T02:25:55.273Z,64.88
2018-03-14T02:26:26.913Z,64.95
2018-03-14T02:26:58.562Z,64.74
2018-03-14T02:27:30.206Z,64.96
2018-03-14T02:28:01.887Z,64.63
2018-03-14T02:28:33.525Z,64.69
2018-03-14T02:29:05.181Z,64.61
2018-03-14T02:29:36.838Z,64.66
2018-03-14T02:30:08.499Z,64.62
2018-03-14T02:30:40.136Z,64.67
2018-03-14T02:31:11.789Z,64.61
2018-03-14T02:31:43.485Z,64.63
2018-03-14T02:32:15.134Z,64.45
2018-03-14T02:32:46.766Z,64.61
2018-03-14T02:33:18.414Z,64.34
2018-03-14T02:33:50.057Z,64.46
2018-03-14T02:34:21.694Z,64.42
2018-03-14T02:34:53.341Z,64.58
2018-03-14T02:35:24.990Z,64.35
2018-03-14T02:35:56.650Z,64.86
2018-03-14T02:36:28.285Z,64.31
2018-03-14T02:36:59.990Z,64.35
2018-03-14T02:37:31.634Z,64.26
2018-03-14T02:38:03.299Z,64.29
2018-03-14T02:38:34.954Z,64.42
2018-03-14T02:39:06.606Z,64.50
2018-03-14T02:39:38.263Z,64.45
2018-03-14T02:40:09.918Z,64.43
2018-03-14T02:40:41.570Z,64.49
2018-03-14T02:41:13.217Z,64.29
2018-03-14T02:41:44.906Z,64.29
2018-03-14T02:42:16.563Z,64.35
2018-03-14T02:42:48.198Z,64.36
2018-03-14T02:43:19.838Z,64.29
2018-03-14T02:43:51.498Z,64.38
2018-03-14T02:44:23.194Z,64.57
2018-03-14T02:44:54.833Z,64.53
2018-03-14T02:45:26.458Z,64.50
2018-03-14T02:45:58.081Z,64.39
2018-03-14T02:46:29.711Z,64.38
2018-03-14T02:47:01.338Z,64.49
2018-03-14T02:47:32.965Z,64.26
2018-03-14T02:48:04.587Z,64.36
2018-03-14T02:48:36.214Z,64.37
2018-03-14T02:49:07.838Z,64.67
2018-03-14T02:49:39.462Z,64.53
2018-03-14T02:50:11.089Z,64.52
2018-03-14T02:50:42.714Z,64.56
2018-03-14T02:51:14.337Z,64.73
2018-03-14T02:51:45.961Z,64.91
2018-03-14T02:52:17.581Z,64.93
2018-03-14T02:52:49.202Z,64.85
2018-03-14T02:53:20.887Z,64.92
2018-03-14T02:53:52.517Z,65.00
2018-03-14T02:54:24.140Z,65.11
2018-03-14T02:54:55.766Z,65.29
2018-03-14T02:55:27.398Z,65.21
2018-03-14T02:55:59.026Z,65.24
2018-03-14T02:56:30.654Z,65.39
2018-03-14T02:57:02.282Z,65.43
2018-03-14T02:57:33.901Z,65.47
2018-03-14T02:58:05.526Z,65.38
2018-03-14T02:58:37.206Z,65.36
2018-03-14T02:59:08.826Z,65.30
2018-03-14T02:59:40.456Z,65.39
2018-03-14T03:00:12.086Z,65.30
2018-03-14T03:00:43.718Z,65.53
2018-03-14T03:01:15.347Z,65.55
2018-03-14T03:01:46.970Z,65.69
2018-03-14T03:02:18.594Z,65.48
2018-03-14T03:02:50.214Z,65.70
2018-03-14T03:03:21.837Z,65.64
2018-03-14T03:03:53.518Z,65.69
2018-03-14T03:04:25.189Z,65.74
2018-03-14T03:04:56.798Z,65.81
2018-03-14T03:05:28.422Z,65.72
2018-03-14T03:06:00.046Z,65.77
2018-03-14T03:06:31.673Z,65.74
2018-03-14T03:07:03.298Z,65.72
2018-03-14T03:07:34.921Z,65.79
2018-03-14T03:08:06.542Z,65.98
2018-03-14T03:08:38.170Z,65.90
2018-03-14T03:09:09.839Z,65.92
2018-03-14T03:09:41.463Z,65.97
2018-03-14T03:10:13.090Z,66.01
2018-03-14T03:10:44.717Z,65.98
2018-03-14T03:11:16.342Z,66.01
2018-03-14T03:11:47.966Z,66.08
2018-03-14T03:12:19.589Z,66.00
2018-03-14T03:12:51.315Z,66.07
2018-03-14T03:13:22.934Z,66.10
2018-03-14T03:13:54.558Z,66.18
2018-03-14T03:14:26.182Z,66.21
2018-03-14T03:14:57.806Z,66.19
2018-03-14T03:15:29.431Z,66.24
2018-03-14T03:16:01.053Z,66.28
2018-03-14T03:16:32.678Z,66.52
2018-03-14T03:17:04.301Z,66.28
2018-03-14T03:17:35.930Z,66.40
2018-03-14T03:18:07.603Z,66.38
2018-03-14T03:18:39.226Z,66.48
2018-03-14T03:19:10.849Z,66.54
2018-03-14T03:19:42.478Z,66.55
2018-03-14T03:20:14.106Z,66.49
2018-03-14T03:20:45.729Z,66.52
2018-03-14T03:21:17.362Z,66.70
2018-03-14T03:21:48.986Z,66.66
2018-03-14T03:22:20.703Z,66.68
2018-03-14T03:22:52.335Z,66.71
2018-03-14T03:23:23.962Z,66.76
2018-03-14T03:23:55.586Z,66.69
2018-03-14T03:24:27.210Z,66.87
2018-03-14T03:24:58.882Z,66.84
2018-03-14T03:25:30.515Z,66.78
2018-03-14T03:26:02.141Z,66.88
2018-03-14T03:26:33.771Z,66.85
2018-03-14T03:27:05.402Z,66.92
2018-03-14T03:27:37.025Z,66.92
2018-03-14T03:28:08.657Z,66.92
2018-03-14T03:28:40.322Z,66.92
2018-03-14T03:29:11.954Z,66.96
2018-03-14T03:29:43.583Z,66.90
2018-03-14T03:30:15.215Z,67.03
2018-03-14T03:30:46.861Z,67.26
2018-03-14T03:31:18.487Z,67.53
2018-03-14T03:31:50.154Z,67.38
2018-03-14T03:32:21.778Z,67.64
2018-03-14T03:32:53.401Z,67.45
2018-03-14T03:33:25.108Z,67.29
2018-03-14T03:33:56.743Z,67.32
2018-03-14T03:34:28.365Z,67.42
2018-03-14T03:34:59.986Z,67.39
2018-03-14T03:35:31.613Z,67.49
2018-03-14T03:36:03.234Z,67.42
2018-03-14T03:36:34.866Z,67.40
2018-03-14T03:37:06.535Z,67.25
2018-03-14T03:37:38.189Z,67.17
2018-03-14T03:38:09.810Z,67.23
2018-03-14T03:38:41.434Z,67.12
2018-03-14T03:39:13.058Z,67.11
2018-03-14T03:39:44.686Z,67.14
2018-03-14T03:40:16.309Z,67.12
2018-03-14T03:40:47.929Z,68.64
2018-03-14T03:41:19.558Z,68.02
2018-03-14T03:41:51.183Z,68.40
2018-03-14T03:42:22.806Z,68.07
2018-03-14T03:42:54.498Z,68.03
2018-03-14T03:43:26.130Z,67.42
2018-03-14T03:43:57.758Z,67.25
2018-03-14T03:44:29.430Z,66.94
2018-03-14T03:45:01.059Z,66.49
2018-03-14T03:45:32.682Z,66.36
2018-03-14T03:46:04.310Z,66.32
2018-03-14T03:46:35.934Z,66.08
2018-03-14T03:47:07.563Z,65.94
2018-03-14T03:47:39.186Z,65.87
2018-03-14T03:48:10.814Z,65.79
2018-03-14T03:48:42.442Z,65.64
2018-03-14T03:49:14.070Z,65.58
2018-03-14T03:49:45.737Z,65.46
2018-03-14T03:50:17.364Z,65.45
2018-03-14T03:50:48.986Z,65.26
2018-03-14T03:51:20.609Z,65.13
2018-03-14T03:51:52.242Z,65.08
2018-03-14T03:52:23.870Z,64.90
2018-03-14T03:52:55.506Z,64.80
2018-03-14T03:53:27.130Z,64.56
2018-03-14T03:53:58.799Z,64.96
2018-03-14T03:54:30.422Z,64.72
2018-03-14T03:55:02.048Z,64.47
2018-03-14T03:55:33.674Z,64.20
2018-03-14T03:56:05.294Z,63.95
2018-03-14T03:56:36.957Z,63.94
2018-03-14T03:57:08.583Z,63.81
2018-03-14T03:57:40.222Z,63.84
2018-03-14T03:58:11.854Z,63.79
2018-03-14T03:58:43.486Z,63.74
2018-03-14T03:59:15.110Z,63.53
2018-03-14T03:59:46.734Z,63.46
2018-03-14T04:00:18.367Z,63.42
2018-03-14T04:00:50.037Z,63.36
2018-03-14T04:01:21.662Z,63.35
2018-03-14T04:01:53.335Z,63.35
2018-03-14T04:02:24.962Z,63.31
2018-03-14T04:02:56.591Z,63.21
2018-03-14T04:03:28.214Z,63.15
2018-03-14T04:03:59.894Z,63.11
2018-03-14T04:04:31.517Z,63.13
2018-03-14T04:05:03.150Z,63.02
2018-03-14T04:05:34.778Z,63.06
2018-03-14T04:06:06.407Z,63.08
2018-03-14T04:06:38.036Z,63.03
2018-03-14T04:07:09.662Z,62.99
2018-03-14T04:07:41.290Z,62.88
2018-03-14T04:08:12.921Z,62.82
2018-03-14T04:08:44.546Z,62.83
2018-03-14T04:09:16.170Z,62.80
2018-03-14T04:09:47.799Z,62.82
2018-03-14T04:10:19.470Z,62.76
2018-03-14T04:10:51.090Z,62.80
2018-03-14T04:11:22.718Z,62.80
2018-03-14T04:11:54.343Z,62.73
2018-03-14T04:12:25.966Z,62.68
2018-03-14T04:12:57.589Z,62.67
2018-03-14T04:13:29.218Z,62.61
2018-03-14T04:14:00.890Z,62.61
2018-03-14T04:14:32.580Z,62.63
2018-03-14T04:15:04.187Z,62.60
2018-03-14T04:15:35.810Z,62.56
2018-03-14T04:16:07.434Z,62.63
2018-03-14T04:16:39.062Z,62.54
2018-03-14T04:17:10.691Z,62.65
2018-03-14T04:17:42.314Z,62.65
2018-03-14T04:18:13.940Z,62.77
2018-03-14T04:18:45.606Z,62.74
2018-03-14T04:19:17.239Z,62.69
2018-03-14T04:19:48.870Z,62.66
2018-03-14T04:20:20.502Z,62.67
2018-03-14T04:20:52.125Z,62.69
2018-03-14T04:21:23.781Z,62.70
2018-03-14T04:21:55.409Z,62.63
2018-03-14T04:22:27.034Z,62.70
2018-03-14T04:22:58.662Z,62.77
2018-03-14T04:23:30.341Z,62.79
2018-03-14T04:24:01.970Z,62.77
2018-03-14T04:24:33.594Z,62.73
2018-03-14T04:25:05.222Z,62.73
2018-03-14T04:25:36.842Z,62.72
2018-03-14T04:26:08.465Z,62.75
2018-03-14T04:26:40.094Z,62.77
2018-03-14T04:27:11.727Z,62.80
2018-03-14T04:27:43.358Z,62.79
2018-03-14T04:28:14.986Z,62.74
2018-03-14T04:28:46.662Z,62.81
2018-03-14T04:29:18.296Z,62.78
2018-03-14T04:29:49.930Z,62.77
2018-03-14T04:30:21.558Z,62.80
2018-03-14T04:30:53.186Z,62.74
2018-03-14T04:31:24.810Z,62.75
2018-03-14T04:31:56.434Z,62.73
2018-03-14T04:32:28.058Z,62.79
2018-03-14T04:32:59.730Z,62.85
2018-03-14T04:33:31.354Z,62.91
2018-03-14T04:34:02.986Z,62.97
2018-03-14T04:34:34.615Z,62.99
2018-03-14T04:35:06.244Z,62.94
2018-03-14T04:35:37.873Z,62.98
2018-03-14T04:36:09.497Z,63.00
2018-03-14T04:36:41.118Z,62.99
2018-03-14T04:37:12.744Z,63.01
2018-03-14T04:37:44.369Z,63.04
2018-03-14T04:38:16.000Z,63.02
2018-03-14T04:38:47.630Z,63.10
2018-03-14T04:39:19.303Z,63.07
2018-03-14T04:39:50.926Z,63.08
2018-03-14T04:40:22.554Z,63.08
2018-03-14T04:40:54.178Z,63.16
2018-03-14T04:41:25.806Z,63.16
2018-03-14T04:41:57.430Z,63.20
2018-03-14T04:42:29.054Z,63.22
2018-03-14T04:43:00.677Z,63.21
2018-03-14T04:43:32.346Z,63.20
2018-03-14T04:44:03.973Z,63.27
2018-03-14T04:44:35.594Z,63.24
2018-03-14T04:45:07.222Z,63.27
2018-03-14T04:45:38.895Z,63.33
2018-03-14T04:46:10.518Z,63.34
2018-03-14T04:46:42.146Z,63.39
2018-03-14T04:47:13.773Z,63.40
2018-03-14T04:47:45.394Z,63.40
2018-03-14T04:48:17.018Z,63.38
2018-03-14T04:48:48.646Z,63.42
2018-03-14T04:49:20.310Z,63.43
2018-03-14T04:49:51.938Z,63.41
2018-03-14T04:50:23.614Z,63.38
2018-03-14T04:50:55.242Z,63.36
2018-03-14T04:51:26.861Z,63.42
2018-03-14T04:51:58.490Z,63.43
2018-03-14T04:52:30.130Z,63.43
2018-03-14T04:53:01.758Z,63.44
2018-03-14T04:53:33.413Z,63.40
2018-03-14T04:54:05.041Z,63.36
2018-03-14T04:54:36.662Z,63.35
2018-03-14T04:55:08.286Z,63.36
2018-03-14T04:55:39.963Z,63.28
2018-03-14T04:56:11.586Z,63.29
2018-03-14T04:56:43.209Z,63.26
2018-03-14T04:57:14.842Z,63.23
2018-03-14T04:57:46.510Z,63.18
2018-03-14T04:58:18.138Z,63.02
2018-03-14T04:58:49.770Z,63.00
2018-03-14T04:59:21.399Z,62.91
2018-03-14T04:59:53.022Z,62.78
2018-03-14T05:00:24.646Z,62.70
2018-03-14T05:00:56.277Z,62.71
2018-03-14T05:01:27.905Z,62.65
2018-03-14T05:01:59.530Z,62.57
2018-03-14T05:02:31.217Z,62.61
2018-03-14T05:03:02.886Z,62.56
2018-03-14T05:03:34.506Z,62.57
2018-03-14T05:04:06.138Z,62.54
2018-03-14T05:04:37.771Z,62.48
2018-03-14T05:05:09.403Z,62.56
2018-03-14T05:05:41.026Z,62.55
2018-03-14T05:06:12.654Z,62.54
2018-03-14T05:06:44.281Z,62.62
2018-03-14T05:07:15.906Z,62.67
2018-03-14T05:07:50.362Z,62.69
2018-03-14T05:08:21.990Z,62.70
2018-03-14T05:08:53.618Z,62.73
2018-03-14T05:09:25.252Z,62.80
2018-03-14T05:09:56.882Z,62.81
2018-03-14T05:10:28.506Z,62.83
2018-03-14T05:11:00.130Z,62.80
2018-03-14T05:11:31.759Z,62.83
2018-03-14T05:12:03.385Z,62.84
2018-03-14T05:12:35.029Z,62.84
2018-03-14T05:13:06.702Z,62.88
2018-03-14T05:13:38.330Z,62.84
2018-03-14T05:14:10.026Z,62.85
2018-03-14T05:14:41.657Z,62.85
2018-03-14T05:15:13.291Z,62.84
2018-03-14T05:15:44.918Z,62.80
2018-03-14T05:16:16.541Z,62.73
2018-03-14T05:16:48.170Z,62.64
2018-03-14T05:17:19.830Z,62.48
2018-03-14T05:17:51.453Z,62.33
2018-03-14T05:18:23.118Z,62.28
2018-03-14T05:18:54.747Z,62.15
2018-03-14T05:19:26.370Z,62.10
2018-03-14T05:19:57.990Z,62.00
2018-03-14T05:20:29.622Z,61.96
2018-03-14T05:21:01.248Z,61.92
2018-03-14T05:21:32.878Z,61.87
2018-03-14T05:22:04.501Z,61.81
2018-03-14T05:22:36.130Z,61.70
2018-03-14T05:23:07.799Z,61.56
2018-03-14T05:23:39.418Z,61.33
2018-03-14T05:24:11.042Z,61.27
2018-03-14T05:24:42.705Z,61.17
2018-03-14T05:25:14.330Z,61.02
2018-03-14T05:25:45.958Z,60.83
2018-03-14T05:26:17.582Z,60.66
2018-03-14T05:26:49.218Z,60.45
2018-03-14T05:27:20.858Z,60.40
2018-03-14T05:27:52.487Z,60.23
2018-03-14T05:28:24.115Z,60.10
2018-03-14T05:28:55.750Z,59.95
2018-03-14T05:29:27.413Z,59.86
2018-03-14T05:29:59.078Z,59.81
2018-03-14T05:30:30.706Z,59.69
2018-03-14T05:31:02.334Z,59.58
2018-03-14T05:31:33.958Z,59.53
2018-03-14T05:32:05.586Z,59.52
2018-03-14T05:32:37.213Z,59.46
2018-03-14T05:33:08.837Z,59.26
2018-03-14T05:33:40.463Z,59.12
2018-03-14T05:34:12.090Z,59.08
2018-03-14T05:34:43.770Z,59.07
2018-03-14T05:35:15.394Z,58.98
2018-03-14T05:35:47.026Z,58.99
2018-03-14T05:36:18.650Z,59.05
2018-03-14T05:36:50.279Z,58.96
2018-03-14T05:37:21.910Z,59.03
2018-03-14T05:37:53.534Z,58.94
2018-03-14T05:38:25.170Z,58.94
2018-03-14T05:38:56.790Z,58.96
2018-03-14T05:39:28.413Z,58.91
2018-03-14T05:40:00.150Z,58.91
2018-03-14T05:40:31.824Z,58.85
2018-03-14T05:41:03.430Z,58.86
2018-03-14T05:41:35.059Z,58.85
2018-03-14T05:42:06.686Z,58.84
2018-03-14T05:42:38.323Z,58.79
2018-03-14T05:43:09.946Z,58.91
2018-03-14T05:43:41.570Z,58.79
2018-03-14T05:44:13.194Z,58.79
2018-03-14T05:44:44.869Z,58.82
2018-03-14T05:45:16.490Z,58.80
2018-03-14T05:45:48.113Z,58.84
2018-03-14T05:46:19.738Z,58.78
2018-03-14T05:46:51.366Z,58.75
2018-03-14T05:47:22.994Z,58.83
2018-03-14T05:47:54.622Z,58.81
2018-03-14T05:48:26.246Z,58.81
2018-03-14T05:48:57.870Z,58.87
2018-03-14T05:49:29.498Z,58.94
2018-03-14T05:50:01.171Z,59.02
2018-03-14T05:50:32.798Z,58.99
2018-03-14T05:51:04.477Z,59.01
2018-03-14T05:51:36.106Z,58.97
2018-03-14T05:52:07.729Z,58.88
2018-03-14T05:52:39.359Z,58.88
2018-03-14T05:53:10.982Z,58.96
2018-03-14T05:53:42.606Z,58.93
2018-03-14T05:54:14.239Z,58.95
2018-03-14T05:54:45.866Z,59.04
2018-03-14T05:55:17.498Z,59.09
2018-03-14T05:55:49.122Z,59.11
2018-03-14T05:56:20.802Z,59.22
2018-03-14T05:56:52.431Z,59.26
2018-03-14T05:57:24.063Z,59.30
2018-03-14T05:57:55.685Z,59.36
2018-03-14T05:58:27.310Z,59.26
2018-03-14T05:58:58.934Z,59.23
2018-03-14T05:59:30.566Z,59.14
2018-03-14T06:00:02.199Z,59.24
2018-03-14T06:00:33.822Z,59.19
2018-03-14T06:01:05.502Z,59.20
2018-03-14T06:01:37.146Z,59.24
2018-03-14T06:02:08.774Z,59.36
2018-03-14T06:02:40.398Z,59.38
2018-03-14T06:03:12.022Z,59.38
2018-03-14T06:03:43.652Z,59.25
2018-03-14T06:04:15.284Z,59.30
2018-03-14T06:04:46.917Z,59.33
2018-03-14T06:05:18.543Z,59.36
2018-03-14T06:05:50.198Z,59.50
2018-03-14T06:06:21.870Z,59.40
2018-03-14T06:06:53.538Z,59.37
2018-03-14T06:07:25.166Z,59.52
2018-03-14T06:07:56.794Z,59.43
2018-03-14T06:08:28.422Z,59.52
2018-03-14T06:09:00.050Z,59.46
2018-03-14T06:09:31.678Z,59.56
2018-03-14T06:10:03.311Z,59.54
2018-03-14T06:10:34.936Z,59.55
2018-03-14T06:11:06.606Z,59.66
2018-03-14T06:11:38.239Z,59.68
2018-03-14T06:12:09.866Z,59.66
2018-03-14T06:12:41.490Z,59.70
2018-03-14T06:13:13.122Z,59.82
2018-03-14T06:13:44.754Z,59.97
2018-03-14T06:14:16.373Z,60.05
2018-03-14T06:14:47.998Z,60.02
2018-03-14T06:15:19.627Z,60.07
2018-03-14T06:15:51.249Z,60.09
2018-03-14T06:16:22.921Z,60.08
2018-03-14T06:16:54.546Z,60.17
2018-03-14T06:17:26.180Z,60.23
2018-03-14T06:17:57.802Z,60.27
2018-03-14T06:18:29.430Z,60.28
2018-03-14T06:19:01.053Z,60.37
2018-03-14T06:19:32.676Z,60.34
2018-03-14T06:20:04.310Z,60.36
2018-03-14T06:20:35.985Z,60.49
2018-03-14T06:21:07.614Z,60.53
2018-03-14T06:21:39.244Z,60.49
2018-03-14T06:22:10.878Z,60.54
2018-03-14T06:22:42.497Z,60.60
2018-03-14T06:23:14.120Z,60.54
2018-03-14T06:23:45.742Z,60.60
2018-03-14T06:24:17.375Z,60.70
2018-03-14T06:24:49.002Z,60.68
2018-03-14T06:25:20.626Z,60.68
2018-03-14T06:25:52.255Z,60.71
2018-03-14T06:26:23.903Z,60.77
2018-03-14T06:26:55.678Z,60.84
2018-03-14T06:27:27.307Z,60.85
2018-03-14T06:27:58.929Z,60.83
2018-03-14T06:28:30.554Z,60.84
2018-03-14T06:29:02.181Z,60.86
2018-03-14T06:29:33.811Z,60.91
2018-03-14T06:30:05.438Z,60.92
2018-03-14T06:30:37.079Z,60.88
2018-03-14T06:31:08.707Z,60.94
2018-03-14T06:31:40.334Z,61.02
2018-03-14T06:32:12.006Z,61.03
2018-03-14T06:32:43.630Z,61.05
2018-03-14T06:33:15.258Z,61.08
2018-03-14T06:33:46.935Z,61.04
2018-03-14T06:34:18.566Z,61.08
2018-03-14T06:34:50.189Z,61.12
2018-03-14T06:35:21.810Z,61.13
2018-03-14T06:35:53.436Z,61.16
2018-03-14T06:36:25.070Z,61.17
2018-03-14T06:36:56.698Z,61.15
2018-03-14T06:37:28.322Z,61.15
2018-03-14T06:37:59.950Z,61.11
2018-03-14T06:38:31.582Z,61.00
2018-03-14T06:39:03.275Z,61.04
2018-03-14T06:39:34.898Z,61.06
2018-03-14T06:40:06.530Z,61.13
2018-03-14T06:40:38.190Z,61.12
2018-03-14T06:41:09.814Z,61.13
2018-03-14T06:41:41.441Z,61.08
2018-03-14T06:42:13.072Z,61.06
2018-03-14T06:42:44.699Z,60.98
2018-03-14T06:43:16.330Z,60.92
2018-03-14T06:43:47.953Z,60.83
2018-03-14T06:44:19.626Z,60.75
2018-03-14T06:44:51.256Z,60.65
2018-03-14T06:45:22.881Z,60.50
2018-03-14T06:45:54.507Z,60.42
2018-03-14T06:46:26.134Z,60.40
2018-03-14T06:46:57.767Z,60.38
2018-03-14T06:47:29.390Z,60.39